sensor_id;sensor_type;location;lat;lon;timestamp;pressure;altitude;pressure_sealevel;temperature;humidity
50368;BME280;36281;34.132;-118.018;2023-07-22T00:00:36;99660.75;;;32.85;36.84
50368;BME280;36281;34.132;-118.018;2023-07-22T00:03:05;99657.28;;;32.88;37.11
50368;BME280;36281;34.132;-118.018;2023-07-22T00:05:36;99655.03;;;32.93;36.98
50368;BME280;36281;34.132;-118.018;2023-07-22T00:08:05;99655.03;;;32.93;36.73
50368;BME280;36281;34.132;-118.018;2023-07-22T00:10:34;99662.50;;;32.93;36.75
50368;BME280;36281;34.132;-118.018;2023-07-22T00:13:03;99663.09;;;32.86;36.29
50368;BME280;36281;34.132;-118.018;2023-07-22T00:15:32;99659.47;;;32.79;36.51
50368;BME280;36281;34.132;-118.018;2023-07-22T00:18:01;99643.88;;;32.60;37.20
50368;BME280;36281;34.132;-118.018;2023-07-22T00:20:30;99658.13;;;32.69;37.08
50368;BME280;36281;34.132;-118.018;2023-07-22T00:23:01;99652.94;;;32.64;36.95
50368;BME280;36281;34.132;-118.018;2023-07-22T00:25:30;99657.75;;;32.48;37.03
50368;BME280;36281;34.132;-118.018;2023-07-22T00:27:59;99658.34;;;32.37;37.38
50368;BME280;36281;34.132;-118.018;2023-07-22T00:30:28;99647.81;;;32.39;37.58
50368;BME280;36281;34.132;-118.018;2023-07-22T00:32:57;99651.72;;;32.38;37.11
50368;BME280;36281;34.132;-118.018;2023-07-22T00:35:26;99647.81;;;32.20;37.25
50368;BME280;36281;34.132;-118.018;2023-07-22T00:37:55;99650.72;;;32.08;37.27
50368;BME280;36281;34.132;-118.018;2023-07-22T00:40:26;99647.22;;;31.91;37.48
50368;BME280;36281;34.132;-118.018;2023-07-22T00:42:55;99635.47;;;31.91;37.85
50368;BME280;36281;34.132;-118.018;2023-07-22T00:45:25;99637.84;;;31.92;38.25
50368;BME280;36281;34.132;-118.018;2023-07-22T00:47:54;99634.00;;;31.94;37.88
50368;BME280;36281;34.132;-118.018;2023-07-22T00:50:24;99628.06;;;31.91;37.96
50368;BME280;36281;34.132;-118.018;2023-07-22T00:52:54;99624.44;;;31.87;37.76
50368;BME280;36281;34.132;-118.018;2023-07-22T00:55:25;99627.81;;;31.81;37.76
50368;BME280;36281;34.132;-118.018;2023-07-22T00:57:55;99621.34;;;31.70;38.00
50368;BME280;36281;34.132;-118.018;2023-07-22T01:00:24;99612.66;;;31.67;37.64
50368;BME280;36281;34.132;-118.018;2023-07-22T01:02:53;99598.75;;;31.57;37.51
50368;BME280;36281;34.132;-118.018;2023-07-22T01:05:22;99600.38;;;31.58;37.62
50368;BME280;36281;34.132;-118.018;2023-07-22T01:07:51;99611.31;;;31.58;38.07
50368;BME280;36281;34.132;-118.018;2023-07-22T01:10:22;99611.94;;;31.51;37.80
50368;BME280;36281;34.132;-118.018;2023-07-22T01:12:52;99606.03;;;31.49;37.79
50368;BME280;36281;34.132;-118.018;2023-07-22T01:15:21;99599.31;;;31.47;38.12
50368;BME280;36281;34.132;-118.018;2023-07-22T01:17:51;99599.31;;;31.47;37.86
50368;BME280;36281;34.132;-118.018;2023-07-22T01:20:21;99589.31;;;31.35;37.51
50368;BME280;36281;34.132;-118.018;2023-07-22T01:22:54;99597.09;;;31.33;37.94
50368;BME280;36281;34.132;-118.018;2023-07-22T01:25:23;99596.63;;;31.31;38.04
50368;BME280;36281;34.132;-118.018;2023-07-22T01:27:56;99587.91;;;31.25;37.98
50368;BME280;36281;34.132;-118.018;2023-07-22T01:30:25;99594.44;;;31.21;38.15
50368;BME280;36281;34.132;-118.018;2023-07-22T01:32:56;99583.41;;;31.17;37.95
50368;BME280;36281;34.132;-118.018;2023-07-22T01:35:25;99575.06;;;31.10;37.93
50368;BME280;36281;34.132;-118.018;2023-07-22T01:37:56;99592.09;;;31.03;37.92
50368;BME280;36281;34.132;-118.018;2023-07-22T01:40:26;99586.81;;;30.95;37.78
50368;BME280;36281;34.132;-118.018;2023-07-22T01:42:55;99586.63;;;30.87;38.16
50368;BME280;36281;34.132;-118.018;2023-07-22T01:45:24;99575.63;;;30.84;38.65
50368;BME280;36281;34.132;-118.018;2023-07-22T01:47:53;99580.03;;;30.73;38.25
50368;BME280;36281;34.132;-118.018;2023-07-22T01:50:23;99580.72;;;30.70;38.79
50368;BME280;36281;34.132;-118.018;2023-07-22T01:52:52;99588.03;;;30.66;38.22
50368;BME280;36281;34.132;-118.018;2023-07-22T01:55:23;99583.19;;;30.59;38.58
50368;BME280;36281;34.132;-118.018;2023-07-22T01:57:53;99580.34;;;30.55;38.63
50368;BME280;36281;34.132;-118.018;2023-07-22T02:00:22;99578.78;;;30.54;38.91
50368;BME280;36281;34.132;-118.018;2023-07-22T02:02:51;99578.25;;;30.49;38.40
50368;BME280;36281;34.132;-118.018;2023-07-22T02:05:21;99578.50;;;30.44;38.07
50368;BME280;36281;34.132;-118.018;2023-07-22T02:07:51;99578.31;;;30.36;39.14
50368;BME280;36281;34.132;-118.018;2023-07-22T02:10:22;99578.56;;;30.31;38.93
50368;BME280;36281;34.132;-118.018;2023-07-22T02:12:51;99581.56;;;30.26;39.23
50368;BME280;36281;34.132;-118.018;2023-07-22T02:15:20;99583.31;;;30.19;39.21
50368;BME280;36281;34.132;-118.018;2023-07-22T02:17:50;99585.03;;;30.11;39.36
50368;BME280;36281;34.132;-118.018;2023-07-22T02:20:19;99580.19;;;30.04;39.62
50368;BME280;36281;34.132;-118.018;2023-07-22T02:22:48;99580.75;;;29.98;39.26
50368;BME280;36281;34.132;-118.018;2023-07-22T02:25:17;99585.78;;;29.96;39.09
50368;BME280;36281;34.132;-118.018;2023-07-22T02:27:48;99588.78;;;29.91;39.51
50368;BME280;36281;34.132;-118.018;2023-07-22T02:30:17;99580.38;;;29.83;39.80
50368;BME280;36281;34.132;-118.018;2023-07-22T02:32:46;99588.38;;;29.76;39.26
50368;BME280;36281;34.132;-118.018;2023-07-22T02:35:15;99586.56;;;29.68;39.55
50368;BME280;36281;34.132;-118.018;2023-07-22T02:37:44;99576.69;;;29.64;39.74
50368;BME280;36281;34.132;-118.018;2023-07-22T02:40:13;99576.59;;;29.60;39.71
50368;BME280;36281;34.132;-118.018;2023-07-22T02:42:42;99568.16;;;29.53;40.01
50368;BME280;36281;34.132;-118.018;2023-07-22T02:45:13;99576.94;;;29.46;39.90
50368;BME280;36281;34.132;-118.018;2023-07-22T02:47:42;99572.88;;;29.40;39.62
50368;BME280;36281;34.132;-118.018;2023-07-22T02:50:11;99579.78;;;29.38;40.26
50368;BME280;36281;34.132;-118.018;2023-07-22T02:52:40;99569.34;;;29.27;40.20
50368;BME280;36281;34.132;-118.018;2023-07-22T02:55:11;99571.41;;;29.18;40.01
50368;BME280;36281;34.132;-118.018;2023-07-22T02:57:40;99568.47;;;29.11;40.45
50368;BME280;36281;34.132;-118.018;2023-07-22T03:00:13;99567.13;;;29.05;40.66
50368;BME280;36281;34.132;-118.018;2023-07-22T03:02:42;99573.94;;;28.99;41.02
50368;BME280;36281;34.132;-118.018;2023-07-22T03:05:11;99568.69;;;28.94;40.65
50368;BME280;36281;34.132;-118.018;2023-07-22T03:07:41;99573.56;;;28.88;41.29
50368;BME280;36281;34.132;-118.018;2023-07-22T03:10:10;99567.91;;;28.81;41.64
50368;BME280;36281;34.132;-118.018;2023-07-22T03:12:39;99570.84;;;28.76;42.48
50368;BME280;36281;34.132;-118.018;2023-07-22T03:15:09;99569.81;;;28.68;42.21
50368;BME280;36281;34.132;-118.018;2023-07-22T03:17:40;99578.13;;;28.59;41.69
50368;BME280;36281;34.132;-118.018;2023-07-22T03:20:12;99578.66;;;28.53;41.61
50368;BME280;36281;34.132;-118.018;2023-07-22T03:22:47;99575.22;;;28.44;41.95
50368;BME280;36281;34.132;-118.018;2023-07-22T03:25:16;99574.34;;;28.40;42.08
50368;BME280;36281;34.132;-118.018;2023-07-22T03:27:46;99573.88;;;28.38;42.00
50368;BME280;36281;34.132;-118.018;2023-07-22T03:30:17;99575.53;;;28.30;42.52
50368;BME280;36281;34.132;-118.018;2023-07-22T03:32:48;99567.09;;;28.23;43.01
50368;BME280;36281;34.132;-118.018;2023-07-22T03:35:19;99566.19;;;28.19;43.25
50368;BME280;36281;34.132;-118.018;2023-07-22T03:37:48;99577.63;;;28.12;43.30
50368;BME280;36281;34.132;-118.018;2023-07-22T03:40:17;99574.31;;;28.06;43.13
50368;BME280;36281;34.132;-118.018;2023-07-22T03:42:51;99576.00;;;27.99;43.32
50368;BME280;36281;34.132;-118.018;2023-07-22T03:45:20;99567.09;;;27.90;43.35
50368;BME280;36281;34.132;-118.018;2023-07-22T03:47:53;99569.25;;;27.84;43.91
50368;BME280;36281;34.132;-118.018;2023-07-22T03:50:23;99570.38;;;27.83;44.52
50368;BME280;36281;34.132;-118.018;2023-07-22T03:52:53;99576.03;;;27.78;44.87
50368;BME280;36281;34.132;-118.018;2023-07-22T03:55:24;99565.38;;;27.64;44.70
50368;BME280;36281;34.132;-118.018;2023-07-22T03:57:57;99470.31;;;27.05;45.18
50368;BME280;36281;34.132;-118.018;2023-07-22T04:00:34;99573.53;;;27.64;45.22
50368;BME280;36281;34.132;-118.018;2023-07-22T04:03:16;99573.63;;;27.55;45.60
50368;BME280;36281;34.132;-118.018;2023-07-22T04:05:54;99578.00;;;27.48;45.77
50368;BME280;36281;34.132;-118.018;2023-07-22T04:08:25;99568.84;;;27.31;46.06
50368;BME280;36281;34.132;-118.018;2023-07-22T04:10:57;99545.59;;;27.13;46.65
50368;BME280;36281;34.132;-118.018;2023-07-22T04:13:28;99575.72;;;27.29;47.10
50368;BME280;36281;34.132;-118.018;2023-07-22T04:15:58;99469.84;;;26.52;47.03
50368;BME280;36281;34.132;-118.018;2023-07-22T04:18:38;99566.91;;;27.02;47.47
50368;BME280;36281;34.132;-118.018;2023-07-22T04:21:11;99591.81;;;27.13;47.42
50368;BME280;36281;34.132;-118.018;2023-07-22T04:23:42;99585.94;;;27.02;47.71
50368;BME280;36281;34.132;-118.018;2023-07-22T04:26:12;99587.44;;;26.91;48.03
50368;BME280;36281;34.132;-118.018;2023-07-22T04:28:41;99583.63;;;26.84;48.43
50368;BME280;36281;34.132;-118.018;2023-07-22T04:31:11;99519.88;;;26.34;48.25
50368;BME280;36281;34.132;-118.018;2023-07-22T04:33:44;99576.81;;;26.69;48.59
50368;BME280;36281;34.132;-118.018;2023-07-22T04:36:15;99617.50;;;26.86;49.38
50368;BME280;36281;34.132;-118.018;2023-07-22T04:38:46;99598.22;;;26.70;49.46
50368;BME280;36281;34.132;-118.018;2023-07-22T04:41:18;99624.22;;;26.80;49.68
50368;BME280;36281;34.132;-118.018;2023-07-22T04:43:51;99624.09;;;26.76;50.00
50368;BME280;36281;34.132;-118.018;2023-07-22T04:46:24;99582.78;;;26.45;50.41
50368;BME280;36281;34.132;-118.018;2023-07-22T04:49:03;99622.84;;;26.65;50.79
50368;BME280;36281;34.132;-118.018;2023-07-22T04:51:38;99631.81;;;26.57;50.84
50368;BME280;36281;34.132;-118.018;2023-07-22T04:54:11;99577.75;;;26.17;51.16
50368;BME280;36281;34.132;-118.018;2023-07-22T04:56:45;99636.31;;;26.44;51.63
50368;BME280;36281;34.132;-118.018;2023-07-22T04:59:15;99590.84;;;26.07;51.95
50368;BME280;36281;34.132;-118.018;2023-07-22T05:01:46;99534.22;;;25.62;51.95
50368;BME280;36281;34.132;-118.018;2023-07-22T05:04:19;99638.41;;;26.21;52.91
50368;BME280;36281;34.132;-118.018;2023-07-22T05:06:49;99644.81;;;26.17;53.35
50368;BME280;36281;34.132;-118.018;2023-07-22T05:09:20;99633.63;;;26.10;53.66
50368;BME280;36281;34.132;-118.018;2023-07-22T05:11:56;99635.84;;;25.99;54.23
50368;BME280;36281;34.132;-118.018;2023-07-22T05:14:27;99636.81;;;25.94;54.48
50368;BME280;36281;34.132;-118.018;2023-07-22T05:16:59;99628.34;;;25.78;54.76
50368;BME280;36281;34.132;-118.018;2023-07-22T05:19:32;99636.03;;;25.76;55.28
50368;BME280;36281;34.132;-118.018;2023-07-22T05:22:04;99554.25;;;25.17;55.71
50368;BME280;36281;34.132;-118.018;2023-07-22T05:24:34;99637.41;;;25.65;55.87
50368;BME280;36281;34.132;-118.018;2023-07-22T05:27:11;99623.69;;;25.53;56.18
50368;BME280;36281;34.132;-118.018;2023-07-22T05:29:45;99634.53;;;25.53;56.59
50368;BME280;36281;34.132;-118.018;2023-07-22T05:32:21;99630.66;;;25.45;56.92
50368;BME280;36281;34.132;-118.018;2023-07-22T05:35:06;99625.91;;;25.42;57.29
50368;BME280;36281;34.132;-118.018;2023-07-22T05:37:38;99617.41;;;25.26;57.45
50368;BME280;36281;34.132;-118.018;2023-07-22T05:40:11;99631.44;;;25.29;57.62
50368;BME280;36281;34.132;-118.018;2023-07-22T05:42:45;99628.41;;;25.21;57.78
50368;BME280;36281;34.132;-118.018;2023-07-22T05:45:17;99606.03;;;25.07;57.96
50368;BME280;36281;34.132;-118.018;2023-07-22T05:47:48;99623.13;;;25.16;58.26
50368;BME280;36281;34.132;-118.018;2023-07-22T05:50:23;99608.63;;;25.12;58.84
50368;BME280;36281;34.132;-118.018;2023-07-22T05:52:55;99593.09;;;25.04;59.03
50368;BME280;36281;34.132;-118.018;2023-07-22T05:55:25;99586.38;;;24.93;59.19
50368;BME280;36281;34.132;-118.018;2023-07-22T05:57:56;99605.19;;;24.98;59.48
50368;BME280;36281;34.132;-118.018;2023-07-22T06:00:27;99602.63;;;24.93;59.50
50368;BME280;36281;34.132;-118.018;2023-07-22T06:02:59;99597.16;;;24.84;59.43
50368;BME280;36281;34.132;-118.018;2023-07-22T06:05:32;99594.13;;;24.77;59.86
50368;BME280;36281;34.132;-118.018;2023-07-22T06:08:03;99574.75;;;24.61;60.07
50368;BME280;36281;34.132;-118.018;2023-07-22T06:10:35;99586.88;;;24.64;60.20
50368;BME280;36281;34.132;-118.018;2023-07-22T06:13:15;99570.38;;;24.43;60.74
50368;BME280;36281;34.132;-118.018;2023-07-22T06:15:47;99590.31;;;24.47;61.18
50368;BME280;36281;34.132;-118.018;2023-07-22T06:18:38;99568.97;;;24.23;61.55
50368;BME280;36281;34.132;-118.018;2023-07-22T06:21:18;99547.59;;;24.13;61.90
50368;BME280;36281;34.132;-118.018;2023-07-22T06:23:54;99583.25;;;24.37;61.89
50368;BME280;36281;34.132;-118.018;2023-07-22T06:26:26;99586.34;;;24.31;62.05
50368;BME280;36281;34.132;-118.018;2023-07-22T06:29:01;99583.47;;;24.27;62.22
50368;BME280;36281;34.132;-118.018;2023-07-22T06:31:32;99575.00;;;24.20;62.68
50368;BME280;36281;34.132;-118.018;2023-07-22T06:34:02;99583.63;;;24.22;62.62
50368;BME280;36281;34.132;-118.018;2023-07-22T06:36:34;99590.75;;;24.18;62.81
50368;BME280;36281;34.132;-118.018;2023-07-22T06:39:09;99553.31;;;23.89;63.04
50368;BME280;36281;34.132;-118.018;2023-07-22T06:41:39;99603.72;;;24.07;63.11
50368;BME280;36281;34.132;-118.018;2023-07-22T06:44:12;99593.03;;;24.02;63.26
50368;BME280;36281;34.132;-118.018;2023-07-22T06:46:45;99577.13;;;23.87;63.38
50368;BME280;36281;34.132;-118.018;2023-07-22T06:49:16;99600.88;;;23.90;63.75
50368;BME280;36281;34.132;-118.018;2023-07-22T06:51:49;99607.50;;;23.84;64.26
50368;BME280;36281;34.132;-118.018;2023-07-22T06:54:18;99572.41;;;23.56;64.43
50368;BME280;36281;34.132;-118.018;2023-07-22T06:56:49;99578.50;;;23.62;64.40
50368;BME280;36281;34.132;-118.018;2023-07-22T06:59:20;99553.34;;;23.39;64.51
50368;BME280;36281;34.132;-118.018;2023-07-22T07:01:53;99519.47;;;23.19;65.14
50368;BME280;36281;34.132;-118.018;2023-07-22T07:04:24;99588.63;;;23.56;65.09
50368;BME280;36281;34.132;-118.018;2023-07-22T07:06:58;99527.00;;;23.08;65.16
50368;BME280;36281;34.132;-118.018;2023-07-22T07:09:30;99579.06;;;23.36;65.46
50368;BME280;36281;34.132;-118.018;2023-07-22T07:12:04;99593.88;;;23.39;65.60
50368;BME280;36281;34.132;-118.018;2023-07-22T07:14:37;99606.50;;;23.43;66.15
50368;BME280;36281;34.132;-118.018;2023-07-22T07:17:07;99581.69;;;23.28;66.17
50368;BME280;36281;34.132;-118.018;2023-07-22T07:19:45;99609.31;;;23.38;66.35
50368;BME280;36281;34.132;-118.018;2023-07-22T07:22:32;99583.91;;;23.12;66.65
50368;BME280;36281;34.132;-118.018;2023-07-22T07:25:04;99610.09;;;23.25;66.93
50368;BME280;36281;34.132;-118.018;2023-07-22T07:27:36;99610.22;;;23.20;67.31
50368;BME280;36281;34.132;-118.018;2023-07-22T07:30:10;99612.59;;;23.21;67.43
50368;BME280;36281;34.132;-118.018;2023-07-22T07:32:45;99610.91;;;23.12;67.32
50368;BME280;36281;34.132;-118.018;2023-07-22T07:35:17;99626.91;;;23.22;67.38
50368;BME280;36281;34.132;-118.018;2023-07-22T07:37:53;99615.03;;;23.23;67.39
50368;BME280;36281;34.132;-118.018;2023-07-22T07:40:23;99618.53;;;23.24;67.50
50368;BME280;36281;34.132;-118.018;2023-07-22T07:42:58;99615.31;;;23.21;67.43
50368;BME280;36281;34.132;-118.018;2023-07-22T07:45:31;99568.63;;;22.93;67.46
50368;BME280;36281;34.132;-118.018;2023-07-22T07:48:07;99615.94;;;23.18;67.43
50368;BME280;36281;34.132;-118.018;2023-07-22T07:50:41;99572.38;;;22.79;67.87
50368;BME280;36281;34.132;-118.018;2023-07-22T07:53:31;99612.53;;;22.99;68.03
50368;BME280;36281;34.132;-118.018;2023-07-22T07:56:00;99610.22;;;22.92;68.73
50368;BME280;36281;34.132;-118.018;2023-07-22T07:58:34;99607.00;;;22.90;69.02
50368;BME280;36281;34.132;-118.018;2023-07-22T08:01:06;99572.06;;;22.66;68.97
50368;BME280;36281;34.132;-118.018;2023-07-22T08:03:42;99590.88;;;22.71;69.46
50368;BME280;36281;34.132;-118.018;2023-07-22T08:06:13;99611.88;;;22.75;69.47
50368;BME280;36281;34.132;-118.018;2023-07-22T08:08:52;99608.16;;;22.70;69.76
50368;BME280;36281;34.132;-118.018;2023-07-22T08:11:30;99601.25;;;22.64;69.77
50368;BME280;36281;34.132;-118.018;2023-07-22T08:14:01;99595.03;;;22.50;69.93
50368;BME280;36281;34.132;-118.018;2023-07-22T08:16:33;99556.78;;;22.15;70.21
50368;BME280;36281;34.132;-118.018;2023-07-22T08:19:03;99595.72;;;22.42;70.49
50368;BME280;36281;34.132;-118.018;2023-07-22T08:21:43;99532.16;;;22.03;70.64
50368;BME280;36281;34.132;-118.018;2023-07-22T08:24:19;99617.34;;;22.56;70.66
50368;BME280;36281;34.132;-118.018;2023-07-22T08:26:51;99620.25;;;22.59;70.42
50368;BME280;36281;34.132;-118.018;2023-07-22T08:29:22;99559.63;;;22.24;70.17
50368;BME280;36281;34.132;-118.018;2023-07-22T08:31:55;99607.34;;;22.56;70.41
50368;BME280;36281;34.132;-118.018;2023-07-22T08:34:28;99606.53;;;22.56;70.61
50368;BME280;36281;34.132;-118.018;2023-07-22T08:37:02;99557.81;;;22.19;70.49
50368;BME280;36281;34.132;-118.018;2023-07-22T08:39:35;99603.63;;;22.52;70.58
50368;BME280;36281;34.132;-118.018;2023-07-22T08:42:09;99605.53;;;22.52;70.66
50368;BME280;36281;34.132;-118.018;2023-07-22T08:44:45;99587.63;;;22.42;70.65
50368;BME280;36281;34.132;-118.018;2023-07-22T08:47:21;99485.22;;;21.72;70.78
50368;BME280;36281;34.132;-118.018;2023-07-22T08:49:53;99597.91;;;22.40;71.01
50368;BME280;36281;34.132;-118.018;2023-07-22T08:52:30;99607.78;;;22.31;71.25
50368;BME280;36281;34.132;-118.018;2023-07-22T08:55:09;99589.66;;;22.17;71.72
50368;BME280;36281;34.132;-118.018;2023-07-22T08:57:42;99604.38;;;22.25;72.13
50368;BME280;36281;34.132;-118.018;2023-07-22T09:00:19;99606.28;;;22.25;71.91
50368;BME280;36281;34.132;-118.018;2023-07-22T09:02:52;99586.75;;;22.14;71.96
50368;BME280;36281;34.132;-118.018;2023-07-22T09:05:23;99539.56;;;21.79;72.05
50368;BME280;36281;34.132;-118.018;2023-07-22T09:08:02;99606.66;;;22.18;72.21
50368;BME280;36281;34.132;-118.018;2023-07-22T09:10:39;99588.72;;;22.08;72.61
50368;BME280;36281;34.132;-118.018;2023-07-22T09:13:13;99596.94;;;22.17;72.40
50368;BME280;36281;34.132;-118.018;2023-07-22T09:15:48;99588.50;;;22.05;72.72
50368;BME280;36281;34.132;-118.018;2023-07-22T09:18:19;99543.34;;;21.78;72.63
50368;BME280;36281;34.132;-118.018;2023-07-22T09:20:50;99584.63;;;21.92;73.13
50368;BME280;36281;34.132;-118.018;2023-07-22T09:23:33;99589.22;;;21.91;73.39
50368;BME280;36281;34.132;-118.018;2023-07-22T09:26:15;99549.97;;;21.66;73.35
50368;BME280;36281;34.132;-118.018;2023-07-22T09:28:50;99588.50;;;21.86;73.53
50368;BME280;36281;34.132;-118.018;2023-07-22T09:31:22;99593.41;;;21.84;73.80
50368;BME280;36281;34.132;-118.018;2023-07-22T09:34:01;99594.41;;;21.88;73.83
50368;BME280;36281;34.132;-118.018;2023-07-22T09:36:54;99581.00;;;21.83;73.56
50368;BME280;36281;34.132;-118.018;2023-07-22T09:39:24;99587.41;;;21.87;73.52
50368;BME280;36281;34.132;-118.018;2023-07-22T09:42:00;99584.00;;;21.81;73.95
50368;BME280;36281;34.132;-118.018;2023-07-22T09:44:34;99515.72;;;21.34;74.02
50368;BME280;36281;34.132;-118.018;2023-07-22T09:47:09;99537.31;;;21.48;74.01
50368;BME280;36281;34.132;-118.018;2023-07-22T09:49:46;99601.56;;;21.79;74.31
50368;BME280;36281;34.132;-118.018;2023-07-22T09:52:20;99611.31;;;21.75;74.40
50368;BME280;36281;34.132;-118.018;2023-07-22T09:54:55;99609.72;;;21.74;74.24
50368;BME280;36281;34.132;-118.018;2023-07-22T09:57:34;99502.91;;;21.02;74.40
50368;BME280;36281;34.132;-118.018;2023-07-22T10:00:10;99593.25;;;21.56;74.58
50368;BME280;36281;34.132;-118.018;2023-07-22T10:02:48;99605.94;;;21.56;74.50
50368;BME280;36281;34.132;-118.018;2023-07-22T10:05:21;99596.47;;;21.58;74.67
50368;BME280;36281;34.132;-118.018;2023-07-22T10:07:55;99615.03;;;21.60;74.88
50368;BME280;36281;34.132;-118.018;2023-07-22T10:10:32;99614.66;;;21.48;74.96
50368;BME280;36281;34.132;-118.018;2023-07-22T10:13:11;99586.56;;;21.30;75.41
50368;BME280;36281;34.132;-118.018;2023-07-22T10:16:08;99595.13;;;21.37;75.38
50368;BME280;36281;34.132;-118.018;2023-07-22T10:18:39;99608.75;;;21.46;75.49
50368;BME280;36281;34.132;-118.018;2023-07-22T10:21:13;99625.94;;;21.50;75.67
50368;BME280;36281;34.132;-118.018;2023-07-22T10:23:49;99618.72;;;21.45;75.68
50368;BME280;36281;34.132;-118.018;2023-07-22T10:26:21;99605.03;;;21.41;75.89
50368;BME280;36281;34.132;-118.018;2023-07-22T10:29:15;99595.91;;;21.37;75.54
50368;BME280;36281;34.132;-118.018;2023-07-22T10:31:46;99609.91;;;21.39;75.97
50368;BME280;36281;34.132;-118.018;2023-07-22T10:34:24;99609.00;;;21.25;76.19
50368;BME280;36281;34.132;-118.018;2023-07-22T10:36:56;99618.66;;;21.26;76.37
50368;BME280;36281;34.132;-118.018;2023-07-22T10:39:33;99612.78;;;21.24;76.69
50368;BME280;36281;34.132;-118.018;2023-07-22T10:42:05;99601.34;;;21.13;76.89
50368;BME280;36281;34.132;-118.018;2023-07-22T10:44:39;99589.28;;;21.06;77.30
50368;BME280;36281;34.132;-118.018;2023-07-22T10:47:11;99589.06;;;21.02;77.44
50368;BME280;36281;34.132;-118.018;2023-07-22T10:49:48;99597.31;;;21.11;77.41
50368;BME280;36281;34.132;-118.018;2023-07-22T10:52:41;99583.09;;;21.05;77.35
50368;BME280;36281;34.132;-118.018;2023-07-22T10:55:18;99586.59;;;21.06;77.22
50368;BME280;36281;34.132;-118.018;2023-07-22T10:57:50;99592.41;;;20.94;77.68
50368;BME280;36281;34.132;-118.018;2023-07-22T11:00:29;99564.09;;;20.73;77.77
50368;BME280;36281;34.132;-118.018;2023-07-22T11:03:20;99609.75;;;21.07;78.00
50368;BME280;36281;34.132;-118.018;2023-07-22T11:05:51;99587.56;;;20.91;77.98
50368;BME280;36281;34.132;-118.018;2023-07-22T11:08:39;99616.50;;;21.04;78.19
50368;BME280;36281;34.132;-118.018;2023-07-22T11:11:11;99597.84;;;20.89;78.21
50368;BME280;36281;34.132;-118.018;2023-07-22T11:13:42;99614.31;;;21.06;78.16
50368;BME280;36281;34.132;-118.018;2023-07-22T11:16:17;99596.44;;;20.91;78.02
50368;BME280;36281;34.132;-118.018;2023-07-22T11:18:49;99622.69;;;21.05;77.92
50368;BME280;36281;34.132;-118.018;2023-07-22T11:21:19;99575.50;;;20.64;78.00
50368;BME280;36281;34.132;-118.018;2023-07-22T11:23:50;99633.84;;;20.93;78.51
50368;BME280;36281;34.132;-118.018;2023-07-22T11:26:21;99642.47;;;20.95;78.70
50368;BME280;36281;34.132;-118.018;2023-07-22T11:28:55;99606.59;;;20.76;78.71
50368;BME280;36281;34.132;-118.018;2023-07-22T11:31:35;99576.41;;;20.55;78.59
50368;BME280;36281;34.132;-118.018;2023-07-22T11:34:13;99635.47;;;20.94;78.57
50368;BME280;36281;34.132;-118.018;2023-07-22T11:36:47;99595.63;;;20.67;78.50
50368;BME280;36281;34.132;-118.018;2023-07-22T11:39:28;99640.38;;;20.87;78.65
50368;BME280;36281;34.132;-118.018;2023-07-22T11:42:03;99592.53;;;20.55;79.04
50368;BME280;36281;34.132;-118.018;2023-07-22T11:44:40;99640.91;;;20.89;80.16
50368;BME280;36281;34.132;-118.018;2023-07-22T11:47:29;99630.19;;;20.84;80.29
50368;BME280;36281;34.132;-118.018;2023-07-22T11:50:03;99632.34;;;20.82;79.55
50368;BME280;36281;34.132;-118.018;2023-07-22T11:52:35;99631.66;;;20.71;79.65
50368;BME280;36281;34.132;-118.018;2023-07-22T11:55:23;99607.41;;;20.42;80.28
50368;BME280;36281;34.132;-118.018;2023-07-22T11:58:06;99598.34;;;20.33;80.79
50368;BME280;36281;34.132;-118.018;2023-07-22T12:00:44;99625.44;;;20.47;80.91
50368;BME280;36281;34.132;-118.018;2023-07-22T12:03:40;99627.03;;;20.43;81.09
50368;BME280;36281;34.132;-118.018;2023-07-22T12:06:26;99637.03;;;20.37;81.44
50368;BME280;36281;34.132;-118.018;2023-07-22T12:08:59;99638.88;;;20.42;81.73
50368;BME280;36281;34.132;-118.018;2023-07-22T12:11:35;99604.31;;;20.30;81.54
50368;BME280;36281;34.132;-118.018;2023-07-22T12:14:10;99639.13;;;20.50;81.23
50368;BME280;36281;34.132;-118.018;2023-07-22T12:16:47;99600.56;;;20.26;81.13
50368;BME280;36281;34.132;-118.018;2023-07-22T12:19:23;99635.63;;;20.50;81.06
50368;BME280;36281;34.132;-118.018;2023-07-22T12:21:54;99609.34;;;20.36;80.63
50368;BME280;36281;34.132;-118.018;2023-07-22T12:24:29;99607.41;;;20.42;80.87
50368;BME280;36281;34.132;-118.018;2023-07-22T12:27:06;99579.59;;;20.23;80.67
50368;BME280;36281;34.132;-118.018;2023-07-22T12:29:39;99599.19;;;20.28;80.76
50368;BME280;36281;34.132;-118.018;2023-07-22T12:32:11;99603.25;;;20.26;81.20
50368;BME280;36281;34.132;-118.018;2023-07-22T12:34:49;99594.56;;;20.05;81.75
50368;BME280;36281;34.132;-118.018;2023-07-22T12:37:24;99594.25;;;20.06;82.27
50368;BME280;36281;34.132;-118.018;2023-07-22T12:39:57;99610.41;;;20.06;83.01
50368;BME280;36281;34.132;-118.018;2023-07-22T12:42:27;99534.13;;;19.58;83.25
50368;BME280;36281;34.132;-118.018;2023-07-22T12:44:58;99612.31;;;20.01;83.64
50368;BME280;36281;34.132;-118.018;2023-07-22T12:47:29;99583.78;;;19.71;83.72
50368;BME280;36281;34.132;-118.018;2023-07-22T12:50:01;99638.38;;;20.05;84.04
50368;BME280;36281;34.132;-118.018;2023-07-22T12:52:35;99658.25;;;20.09;83.76
50368;BME280;36281;34.132;-118.018;2023-07-22T12:55:08;99648.31;;;20.05;83.65
50368;BME280;36281;34.132;-118.018;2023-07-22T12:57:38;99656.81;;;20.17;83.63
50368;BME280;36281;34.132;-118.018;2023-07-22T13:00:12;99608.69;;;19.81;83.51